ニューヨーク/JFK の空港の天気 - METARとTAF

ジョン・F・ケネディ国際空港 ( KJFK / JFK ) - アメリカ ニューヨーク州ニューヨーク
飛行場実況気象(Metar)
観測時間10/16 03:51 EDT (10/16 07:51 UTC)
風向・風速東南東 3m/s
視程10km以上
天気現象
少しの雲 雲底高度 1070m
少しの雲 雲底高度 7620m
気温9.4℃
湿度93%
気圧1017hPa
METARKJFK 160751Z 11005KT 10SM FEW035 FEW250 09/08 A3004 RMK AO2 SLP170 T00940083 $
過去の天気等 Google飛行場航空写真 Wunderground天気予報

過去48時間のMETAR

飛行場予報(TAF)
発表時間: 10/16 01:23 EDT (10/16 05:23 UTC)
予報対象時間: 16日2時 EDT ~ 17日8時 EDT
風向・風速南南東 3m/s
視程10km以上
なし
16日10時 EDT から
風向・風速南東 5m/s
視程10km以上
天気現象周辺でしゅう雨
全天の8割程度の雲 雲底高度 2130m
16日11時 EDT から
風向・風速南東 6m/s
視程10km以上
天気現象周辺でしゅう雨
全天の8割程度の雲 雲底高度 1070m
16日13時 EDT から
風向・風速南東 7m/s 瞬間風速 12m/s
視程10km以上
天気現象周辺でしゅう雨
全天の8割程度の雲 雲底高度 1070m
16日14時 EDT から
風向・風速南東 8m/s 瞬間風速 13m/s
視程8050m
天気現象弱い雨
全天の8割程度の雲 雲底高度 910m
16日17時 EDT から
風向・風速南東 8m/s 瞬間風速 13m/s
視程3220m
天気現象強い雨
全天を覆う雲 雲底高度 210m
16日21時 EDT から
風向・風速東 8m/s 瞬間風速 14m/s
視程3220m
天気現象強い雨
全天を覆う雲 雲底高度 210m
16日22時 EDT から
風向・風速北北西 7m/s 瞬間風速 13m/s
視程3220m
天気現象強い雨
全天を覆う雲 雲底高度 460m
17日0時 EDT から
風向・風速西北西 8m/s 瞬間風速 13m/s
視程6440m
天気現象弱い雨
全天を覆う雲 雲底高度 760m
17日4時 EDT から
風向・風速西 8m/s 瞬間風速 13m/s
視程10km以上
全天の8割程度の雲 雲底高度 910m
KJFK 160523Z 1606/1712 16006KT P6SM SKC
FM161400 13010KT P6SM VCSH BKN070
FM161500 13012KT P6SM VCSH BKN035
FM161700 13014G23KT P6SM VCSH BKN035
FM161800 13015G25KT 5SM -RA BKN030
FM162100 13016G26KT 2SM +RA OVC007
FM170100 08015G27KT 2SM +RA OVC007
FM170200 33014G25KT 2SM +RA OVC015
FM170400 30015G25KT 4SM -RA OVC025
FM170800 28015G25KT P6SM BKN030